Acton, CA

8:39 PM PDT on August 31, 2016 (GMT -0700)
Bridle Path | | Change Station

Elev 2920 ft 34.48 °N, 118.17 °W | Updated 30 seconds ago

Clear
Clear
79.8 °F
Feels Like 78 °F
N
3.0
Wind Variable Wind from NNW
Gusts 6.0 mph

Today
High -- | Low -- °F
--% Chance of Precip.
Yesterday
High -- | Low -- °F
Precip. -- in
Pressure 29.83 in
Visibility 10.0 miles
Clouds Clear
Heat Index 78 °F
Dew Point 35 °F
Humidity 20%
Rainfall 0.00 in
Snow Depth Not available.
6:25 AM 7:19 PM
Waning Crescent, 0% visible
METAR KPMD 010253Z AUTO 25011KT 10SM CLR 30/01 A2992 RMK AO2 SLP100 T03000006 53003
Pressure 29.83 in
Visibility 10.0 miles
Clouds Clear
Heat Index 78 °F
Dew Point 35 °F
Humidity 20%
Rainfall 0.00 in
Snow Depth Not available.
6:25 AM 7:19 PM
Waning Crescent, 0% visible
METAR KPMD 010253Z AUTO 25011KT 10SM CLR 30/01 A2992 RMK AO2 SLP100 T03000006 53003

10-Day Weather Forecast

Almanac

Astronomy

Aug. 31, 2016 Rise Set
Actual Time
Civil Twilight
Nautical Twilight
Astronomical Twilight
Moon
Length of Visible Light
Length of Day
Tomorrow will be .
, % of the Moon is Illuminated

Today's Extremes

State Highs State Lows

Community

WunderPhotos

Upload Photos

1,936,289 photos uploaded!

WunderBlog® & News

Nearby

Air Quality

  Air Quality AQ Index Pollutant
Not available.

Snow Depth

Station Depth Elevation

Earthquake Activity

City Distance Mag. Time & Date
Minimum magnitude displayed is 2.5.

Coastal Water Temperatures

Place Temperature

Stations

Nearby Weather Stations

Station Location Temp. Windchill Dew Point Humidity Wind Precip. Elev Updated Type
                   

Watches & Warnings

There are currently no watches in effect.